KFHU

Sierra Vista Municipal-Libby AAF Airport

Fort Huachuca Sierra Vista, Arizona, USA
METAR KFHU 180252Z AUTO 11005KT 10SM OVC011 05/05 A3000 RMK AO2 SLP146
Observed Flight Rules
Dec-18 @ 02:52 UTC (20 minutes ago) Marginal Visual Flight Rules
Wind Visibility Clouds
110° at 5 knots 10 miles
  • Overcast at 1,100' AGL
Temperatures Readings
Current 5°C / 41°F
Dewpoint 5°C / 41°F
Humidity 100%
Altimeter 30" Hg
Pressure 1014.6 hPa
Elevation 1438
METAR KFHU 180252Z AUTO 11005KT 10SM OVC011 05/05 A3000 RMK AO2 SLP146
Observed Flight Rules
Dec-18 @ 02:52 UTC
(20 minutes ago)
MVFR
Wind Visibility
110° at 5 knots 10 miles
Clouds
  • Overcast at 1,100' AGL
Temperature Dewpoint
5°C / 41°F 5°C / 41°F
Humidity Altimeter Pressure
100% 30" Hg 1014.6 hPa